createdAt,value
2019-02-06T00:04:48.429Z,9.20
2019-02-06T00:09:53.066Z,6.90
2019-02-06T00:14:58.002Z,6.47
2019-02-06T00:20:02.568Z,8.57
2019-02-06T00:25:07.494Z,7.73
2019-02-06T00:30:15.160Z,7.23
2019-02-06T00:35:25.720Z,9.70
2019-02-06T00:40:26.336Z,7.93
2019-02-06T00:45:31.177Z,9.13
2019-02-06T00:50:36.229Z,6.83
2019-02-06T00:55:40.863Z,7.20
2019-02-06T01:00:45.611Z,12.80
2019-02-06T01:05:50.165Z,14.67
2019-02-06T01:10:54.788Z,8.97
2019-02-06T01:15:59.636Z,8.53
2019-02-06T01:21:05.505Z,7.40
2019-02-06T01:26:10.244Z,9.47
2019-02-06T01:31:15.501Z,10.83
2019-02-06T01:36:20.043Z,9.53
2019-02-06T01:41:24.667Z,9.47
2019-02-06T01:46:29.324Z,9.47
2019-02-06T01:51:34.272Z,7.40
2019-02-06T01:56:39.014Z,8.07
2019-02-06T02:01:43.864Z,6.53
2019-02-06T02:06:48.497Z,7.03
2019-02-06T02:11:53.131Z,6.93
2019-02-06T02:16:57.886Z,8.83
2019-02-06T02:22:02.623Z,7.83
2019-02-06T02:27:08.390Z,7.73
2019-02-06T02:32:13.341Z,8.77
2019-02-06T02:37:19.114Z,11.73
2019-02-06T02:42:23.849Z,8.70
2019-02-06T02:47:28.485Z,10.83
2019-02-06T02:52:33.247Z,9.60
2019-02-06T02:57:38.075Z,8.83
2019-02-06T03:02:44.221Z,10.07
2019-02-06T03:07:48.883Z,9.77
2019-02-06T03:12:53.540Z,9.43
2019-02-06T03:17:58.473Z,10.73
2019-02-06T03:23:03.122Z,8.33
2019-02-06T03:28:07.870Z,8.57
2019-02-06T03:33:12.513Z,7.73
2019-02-06T03:38:17.247Z,8.33
2019-02-06T03:43:21.992Z,8.03
2019-02-06T03:48:26.526Z,7.63
2019-02-06T03:53:31.271Z,7.17
2019-02-06T03:58:36.121Z,11.23
2019-02-06T04:03:40.759Z,9.17
2019-02-06T04:08:45.497Z,7.00
2019-02-06T04:13:50.140Z,6.07
2019-02-06T04:18:55.906Z,5.80
2019-02-06T04:24:00.540Z,4.33
2019-02-06T04:29:05.178Z,10.53
2019-02-06T04:34:09.929Z,8.97
2019-02-06T04:39:14.676Z,7.93
2019-02-06T04:44:19.625Z,6.77
2019-02-06T04:49:24.568Z,5.03
2019-02-06T04:54:30.849Z,7.27
2019-02-06T04:59:35.495Z,8.97
2019-02-06T05:04:40.535Z,6.30
2019-02-06T05:09:45.795Z,6.67
2019-02-06T05:14:50.541Z,5.30
2019-02-06T05:19:55.779Z,21.73
2019-02-06T05:25:00.752Z,25.27
2019-02-06T05:30:08.038Z,8.63
2019-02-06T05:35:12.790Z,9.07
2019-02-06T05:40:17.528Z,19.47
2019-02-06T05:45:24.006Z,9.00
2019-02-06T05:50:28.645Z,12.83
2019-02-06T05:55:33.503Z,14.80
2019-02-06T06:00:39.877Z,18.17
2019-02-06T06:05:44.635Z,11.00
2019-02-06T06:10:49.391Z,13.83
2019-02-06T06:15:54.209Z,15.80
2019-02-06T06:20:59.688Z,5.30
2019-02-06T06:26:04.627Z,6.70
2019-02-06T06:31:09.379Z,9.27
2019-02-06T06:36:14.101Z,10.40
2019-02-06T06:41:18.847Z,17.33
2019-02-06T06:46:23.590Z,27.37
2019-02-06T06:51:28.527Z,75.23
2019-02-06T06:56:33.175Z,53.83
2019-02-06T07:01:38.018Z,9.60
2019-02-06T07:06:42.865Z,12.93
2019-02-06T07:11:49.246Z,19.93
2019-02-06T07:16:54.030Z,16.03
2019-02-06T07:21:58.737Z,21.27
2019-02-06T07:27:03.576Z,15.57
2019-02-06T07:32:08.237Z,19.33
2019-02-06T07:37:12.962Z,20.53
2019-02-06T07:42:17.705Z,13.70
2019-02-06T07:47:22.444Z,14.80
2019-02-06T07:52:27.292Z,19.07
2019-02-06T07:57:32.036Z,6.40
2019-02-06T08:02:38.621Z,36.30
2019-02-06T08:07:43.354Z,16.87
2019-02-06T08:12:48.518Z,11.23
2019-02-06T08:17:53.155Z,10.07
2019-02-06T08:22:57.898Z,6.63
2019-02-06T08:28:02.641Z,5.73
2019-02-06T08:33:07.384Z,6.50
2019-02-06T08:38:12.124Z,7.87
2019-02-06T08:43:16.766Z,8.67
2019-02-06T08:48:21.502Z,7.57
2019-02-06T08:53:26.147Z,9.23
2019-02-06T08:58:30.781Z,30.47
2019-02-06T09:03:35.391Z,16.90
2019-02-06T09:08:40.173Z,19.07
2019-02-06T09:13:46.421Z,11.30
2019-02-06T09:18:50.980Z,10.87
2019-02-06T09:23:55.724Z,10.20
2019-02-06T09:29:00.683Z,64.00
2019-02-06T09:34:05.541Z,14.17
2019-02-06T09:39:11.914Z,14.03
2019-02-06T09:44:17.686Z,8.43
2019-02-06T09:49:22.724Z,27.10
2019-02-06T09:54:27.772Z,11.40
2019-02-06T09:59:32.422Z,9.23
2019-02-06T10:04:37.157Z,52.47
2019-02-06T10:09:41.799Z,7.13
2019-02-06T10:14:46.538Z,16.40
2019-02-06T10:19:51.181Z,14.10
2019-02-06T10:24:55.925Z,17.30
2019-02-06T10:30:03.632Z,13.50
2019-02-06T10:35:08.483Z,14.47
2019-02-06T10:40:13.532Z,10.17
2019-02-06T10:45:21.080Z,8.90
2019-02-06T10:50:29.264Z,8.60
2019-02-06T10:55:34.621Z,8.07
2019-02-06T11:00:42.063Z,13.13
2019-02-06T11:05:46.975Z,13.83
2019-02-06T11:10:52.227Z,8.60
2019-02-06T11:15:57.940Z,11.83
2019-02-06T11:21:02.953Z,16.03
2019-02-06T11:26:07.614Z,27.80
2019-02-06T11:31:12.550Z,14.50
2019-02-06T11:36:24.206Z,35.07
2019-02-06T11:41:27.852Z,22.07
2019-02-06T11:46:32.702Z,13.50
2019-02-06T11:51:37.644Z,11.07
2019-02-06T11:56:42.508Z,9.00
2019-02-06T12:01:49.857Z,15.70
2019-02-06T12:06:54.644Z,20.33
2019-02-06T12:11:59.482Z,11.43
2019-02-06T12:17:04.341Z,10.97
2019-02-06T12:22:09.178Z,11.03
2019-02-06T12:27:15.864Z,9.27
2019-02-06T12:32:20.597Z,8.53
2019-02-06T12:37:25.351Z,7.67
2019-02-06T12:42:30.089Z,7.00
2019-02-06T12:47:34.725Z,12.00
2019-02-06T12:52:39.558Z,10.83
2019-02-06T12:57:44.238Z,9.70
2019-02-06T13:02:50.608Z,7.87
2019-02-06T13:07:55.349Z,16.43
2019-02-06T13:13:00.188Z,7.00
2019-02-06T13:18:05.249Z,22.43
2019-02-06T13:23:09.981Z,7.80
2019-02-06T13:28:14.631Z,8.27
2019-02-06T13:33:19.387Z,8.60
2019-02-06T13:38:24.141Z,8.80
2019-02-06T13:43:29.256Z,17.57
2019-02-06T13:48:36.061Z,10.00
2019-02-06T13:53:42.492Z,16.63
2019-02-06T13:58:47.086Z,10.90
2019-02-06T14:03:52.019Z,10.07
2019-02-06T14:08:56.768Z,41.80
2019-02-06T14:14:01.610Z,55.53
2019-02-06T14:19:06.759Z,29.47
2019-02-06T14:24:23.601Z,23.77
2019-02-06T14:29:40.518Z,10.60
2019-02-06T14:34:50.855Z,21.60
2019-02-06T14:40:01.575Z,9.27
2019-02-06T14:45:15.430Z,19.03
2019-02-06T14:50:38.297Z,11.57
2019-02-06T14:55:46.124Z,16.10
2019-02-06T15:01:00.488Z,20.70
2019-02-06T15:06:19.251Z,15.97
2019-02-06T15:11:42.021Z,15.33
2019-02-06T15:17:06.418Z,13.23
2019-02-06T15:22:14.563Z,17.47
2019-02-06T15:27:41.924Z,11.47
2019-02-06T15:33:07.857Z,14.47
2019-02-06T15:38:18.638Z,13.20
2019-02-06T15:43:50.722Z,11.10
2019-02-06T15:49:07.755Z,9.53
2019-02-06T15:54:26.024Z,10.27
2019-02-06T15:59:46.011Z,10.13
2019-02-06T16:05:24.036Z,11.03
2019-02-06T16:10:34.820Z,16.73
2019-02-06T16:15:48.378Z,18.30
2019-02-06T16:21:17.207Z,22.23
2019-02-06T16:26:41.906Z,19.60
2019-02-06T16:31:59.207Z,17.77
2019-02-06T16:37:09.805Z,18.67
2019-02-06T16:42:35.839Z,10.97
2019-02-06T16:48:01.795Z,23.40
2019-02-06T16:53:15.229Z,15.13
2019-02-06T16:58:38.513Z,6.53
2019-02-06T17:04:00.766Z,6.00
2019-02-06T17:09:35.787Z,9.83
2019-02-06T17:15:03.294Z,19.70
2019-02-06T17:20:29.339Z,9.77
2019-02-06T17:25:58.147Z,16.80
2019-02-06T17:31:35.140Z,24.67
2019-02-06T17:36:43.677Z,23.20
2019-02-06T17:42:15.873Z,47.83
2019-02-06T17:47:26.140Z,56.53
2019-02-06T17:52:52.096Z,27.73
2019-02-06T17:57:56.801Z,18.93
2019-02-06T18:03:04.935Z,20.57
2019-02-06T18:08:09.674Z,20.47
2019-02-06T18:13:14.522Z,17.13
2019-02-06T18:18:19.338Z,45.50
2019-02-06T18:23:24.402Z,20.80
2019-02-06T18:28:29.659Z,12.47
2019-02-06T18:33:34.806Z,20.50
2019-02-06T18:38:46.927Z,51.87
2019-02-06T18:43:47.956Z,74.60
2019-02-06T18:48:53.149Z,72.53
2019-02-06T18:53:58.401Z,32.13
2019-02-06T18:59:03.351Z,32.73
2019-02-06T19:04:08.113Z,24.83
2019-02-06T19:09:14.271Z,22.00
2019-02-06T19:14:19.006Z,37.07
2019-02-06T19:19:25.416Z,41.60
2019-02-06T19:24:31.267Z,38.17
2019-02-06T19:29:35.999Z,41.87
2019-02-06T19:34:40.746Z,44.60
2019-02-06T19:39:45.586Z,46.87
2019-02-06T19:44:51.662Z,70.97
2019-02-06T19:49:56.301Z,47.10
2019-02-06T19:55:01.049Z,56.90
2019-02-06T20:00:11.832Z,27.53
2019-02-06T20:05:20.464Z,17.97
2019-02-06T20:10:34.120Z,26.67
2019-02-06T20:15:40.601Z,29.87
2019-02-06T20:20:45.751Z,32.40
2019-02-06T20:25:51.316Z,34.80
2019-02-06T20:30:57.031Z,30.30
2019-02-06T20:36:02.534Z,41.57
2019-02-06T20:41:08.217Z,28.90
2019-02-06T20:46:16.303Z,19.43
2019-02-06T20:51:23.037Z,21.90
2019-02-06T20:56:28.263Z,37.13
2019-02-06T21:01:33.420Z,38.10
2019-02-06T21:06:38.576Z,27.07
2019-02-06T21:11:43.854Z,21.47
2019-02-06T21:16:50.639Z,24.67
2019-02-06T21:21:55.752Z,26.87
2019-02-06T21:27:00.409Z,24.57
2019-02-06T21:32:05.262Z,38.27
2019-02-06T21:37:10.511Z,23.87
2019-02-06T21:42:15.460Z,20.97
2019-02-06T21:47:20.346Z,30.97
2019-02-06T21:52:25.041Z,30.87
2019-02-06T21:57:29.791Z,16.43
2019-02-06T22:02:34.528Z,25.63
2019-02-06T22:07:39.275Z,15.17
2019-02-06T22:12:44.223Z,19.83
2019-02-06T22:17:48.960Z,45.23
2019-02-06T22:22:53.709Z,10.57
2019-02-06T22:27:58.340Z,14.63
2019-02-06T22:33:03.218Z,7.13
2019-02-06T22:38:09.203Z,10.73
2019-02-06T22:43:15.034Z,16.03
2019-02-06T22:48:21.528Z,19.33
2019-02-06T22:53:27.153Z,12.43
2019-02-06T22:58:31.836Z,10.37
2019-02-06T23:03:37.996Z,7.40
2019-02-06T23:08:42.739Z,15.70
2019-02-06T23:13:47.585Z,10.50
2019-02-06T23:18:52.531Z,8.20
2019-02-06T23:23:58.500Z,5.50
2019-02-06T23:29:03.248Z,9.17
2019-02-06T23:34:07.983Z,14.53
2019-02-06T23:39:14.682Z,21.23
2019-02-06T23:44:28.503Z,14.13
2019-02-06T23:49:26.620Z,9.50
2019-02-06T23:54:31.254Z,4.40
2019-02-06T23:59:35.797Z,3.70
